DHK281 YMML-YPDN
Flight info
| Callsign | DHK281 |
|---|---|
| Flight time | 3h 57m |
| Altitude | 34000 |
| Route | ML H164 KEPPA H336 NATYA J19 BHI T25 TNK J30 TN Q23 DN |
| Aircraft | B77L/H-SDE1E2E3FGHIJ2J3J4J5M1RWXY/LB1D1 |
Departure
| Time | 2026-04-30 18:23 |
|---|---|
| Airport | Melbourne Airport (YMML) |
Arrival
| Time | 2026-04-30 22:20 |
|---|---|
| Airport | Darwin International Airport / RAAF Darwin (YPDN) |
| Time | Latitude | Longitude | Altitude | Speed | Heading |
|---|---|---|---|---|---|
| 2026-04-30 18:11 | -37.67820 | 144.84789 | 374 ft | 0 kts | 172° |
| 2026-04-30 18:15 | -37.67790 | 144.84784 | 375 ft | 3 kts | 173° |
| 2026-04-30 18:15 | -37.67737 | 144.84795 | 377 ft | 3 kts | 220° |
| 2026-04-30 18:16 | -37.67718 | 144.84828 | 379 ft | 0 kts | 256° |
| 2026-04-30 18:18 | -37.67720 | 144.84815 | 378 ft | 5 kts | 257° |
| 2026-04-30 18:18 | -37.67732 | 144.84727 | 377 ft | 13 kts | 261° |
| 2026-04-30 18:18 | -37.67765 | 144.84618 | 378 ft | 14 kts | 217° |
| 2026-04-30 18:19 | -37.67826 | 144.84521 | 372 ft | 15 kts | 263° |
| 2026-04-30 18:19 | -37.67865 | 144.84402 | 372 ft | 16 kts | 209° |
| 2026-04-30 18:19 | -37.67975 | 144.84415 | 366 ft | 17 kts | 170° |
| 2026-04-30 18:19 | -37.68096 | 144.84441 | 366 ft | 19 kts | 170° |
| 2026-04-30 18:20 | -37.68217 | 144.84460 | 361 ft | 13 kts | 172° |
| 2026-04-30 18:20 | -37.68311 | 144.84477 | 359 ft | 15 kts | 174° |
| 2026-04-30 18:20 | -37.68407 | 144.84425 | 360 ft | 16 kts | 216° |
| 2026-04-30 18:20 | -37.68475 | 144.84362 | 359 ft | 9 kts | 216° |
| 2026-04-30 18:21 | -37.68527 | 144.84305 | 356 ft | 11 kts | 230° |
| 2026-04-30 18:21 | -37.68561 | 144.84222 | 354 ft | 11 kts | 252° |
| 2026-04-30 18:21 | -37.68565 | 144.84128 | 348 ft | 11 kts | 282° |
| 2026-04-30 18:21 | -37.68520 | 144.84079 | 352 ft | 8 kts | 356° |
| 2026-04-30 18:22 | -37.68462 | 144.84070 | 355 ft | 8 kts | 352° |
| 2026-04-30 18:22 | -37.67431 | 144.83886 | 385 ft | 168 kts | 352° |
| 2026-04-30 18:22 | -37.66078 | 144.83636 | 810 ft | 209 kts | 352° |
| 2026-04-30 18:23 | -37.64624 | 144.83352 | 2144 ft | 211 kts | 352° |
| 2026-04-30 18:23 | -37.63247 | 144.82836 | 3721 ft | 199 kts | 338° |
| 2026-04-30 18:23 | -37.61939 | 144.82385 | 4653 ft | 200 kts | 355° |
| 2026-04-30 18:23 | -37.60511 | 144.82807 | 5068 ft | 226 kts | 26° |
| 2026-04-30 18:24 | -37.57660 | 144.84637 | 6179 ft | 234 kts | 356° |
| 2026-04-30 18:24 | -37.56107 | 144.84075 | 6944 ft | 237 kts | 328° |
| 2026-04-30 18:24 | -37.54823 | 144.82733 | 7580 ft | 244 kts | 319° |
| 2026-04-30 18:25 | -37.53555 | 144.81279 | 8321 ft | 249 kts | 319° |
| 2026-04-30 18:25 | -37.50934 | 144.78282 | 9789 ft | 259 kts | 319° |
| 2026-04-30 18:25 | -37.49589 | 144.76741 | 10506 ft | 263 kts | 318° |
| 2026-04-30 18:26 | -37.46856 | 144.73607 | 11902 ft | 271 kts | 319° |
| 2026-04-30 18:26 | -37.45429 | 144.71972 | 12409 ft | 285 kts | 318° |
| 2026-04-30 18:26 | -37.43904 | 144.70227 | 12608 ft | 310 kts | 319° |
| 2026-04-30 18:27 | -37.40450 | 144.66278 | 13031 ft | 359 kts | 318° |
| 2026-04-30 18:27 | -37.38590 | 144.64151 | 13849 ft | 363 kts | 318° |
| 2026-04-30 18:28 | -37.34806 | 144.59829 | 15391 ft | 373 kts | 318° |
| 2026-04-30 18:28 | -37.32872 | 144.57623 | 16141 ft | 377 kts | 318° |
| 2026-04-30 18:28 | -37.28915 | 144.53115 | 17444 ft | 392 kts | 318° |
| 2026-04-30 18:29 | -37.26879 | 144.50798 | 18071 ft | 399 kts | 318° |
| 2026-04-30 18:29 | -37.20614 | 144.43681 | 20043 ft | 410 kts | 318° |
| 2026-04-30 18:30 | -37.16343 | 144.38839 | 21279 ft | 418 kts | 318° |
| 2026-04-30 18:30 | -37.11989 | 144.33910 | 22477 ft | 426 kts | 318° |
| 2026-04-30 18:31 | -37.09781 | 144.31415 | 23073 ft | 429 kts | 319° |
| 2026-04-30 18:31 | -37.05302 | 144.26356 | 24163 ft | 437 kts | 318° |
| 2026-04-30 18:32 | -37.00755 | 144.21230 | 25189 ft | 443 kts | 318° |
| 2026-04-30 18:32 | -36.98461 | 144.18647 | 25704 ft | 445 kts | 318° |
| 2026-04-30 18:32 | -36.93826 | 144.13434 | 26672 ft | 451 kts | 318° |
| 2026-04-30 18:33 | -36.91484 | 144.10804 | 27142 ft | 454 kts | 318° |
| 2026-04-30 18:33 | -36.86752 | 144.05494 | 28064 ft | 461 kts | 317° |
| 2026-04-30 18:33 | -36.84391 | 144.02849 | 28512 ft | 463 kts | 317° |
| 2026-04-30 18:34 | -36.81908 | 144.00274 | 28943 ft | 466 kts | 323° |
| 2026-04-30 18:34 | -36.76240 | 143.96219 | 29703 ft | 475 kts | 334° |
| 2026-04-30 18:34 | -36.73142 | 143.94731 | 30080 ft | 478 kts | 340° |
| 2026-04-30 18:35 | -36.69941 | 143.93411 | 30530 ft | 478 kts | 340° |
| 2026-04-30 18:35 | -36.66777 | 143.92138 | 30979 ft | 477 kts | 340° |
| 2026-04-30 18:35 | -36.63618 | 143.90870 | 31395 ft | 477 kts | 340° |
| 2026-04-30 18:36 | -36.57306 | 143.88305 | 32160 ft | 477 kts | 340° |
| 2026-04-30 18:36 | -36.54156 | 143.87011 | 32557 ft | 477 kts | 340° |
| 2026-04-30 18:36 | -36.47861 | 143.84412 | 33312 ft | 476 kts | 340° |
| 2026-04-30 18:37 | -36.44761 | 143.83131 | 33685 ft | 476 kts | 340° |
| 2026-04-30 18:37 | -36.41618 | 143.81833 | 34050 ft | 476 kts | 340° |
| 2026-04-30 18:37 | -36.38471 | 143.80535 | 34240 ft | 479 kts | 340° |
| 2026-04-30 18:38 | -36.32117 | 143.77918 | 34275 ft | 480 kts | 340° |
| 2026-04-30 18:38 | -36.25851 | 143.75344 | 34273 ft | 474 kts | 340° |
| 2026-04-30 18:39 | -36.19855 | 143.72885 | 34277 ft | 474 kts | 340° |
| 2026-04-30 18:39 | -36.13582 | 143.70316 | 34277 ft | 475 kts | 340° |
| 2026-04-30 18:40 | -36.07303 | 143.67748 | 34274 ft | 476 kts | 340° |
| 2026-04-30 18:40 | -36.01006 | 143.65178 | 34271 ft | 477 kts | 340° |
| 2026-04-30 18:41 | -35.94692 | 143.62606 | 34269 ft | 478 kts | 340° |
| 2026-04-30 18:41 | -35.88371 | 143.60035 | 34269 ft | 479 kts | 340° |
| 2026-04-30 18:42 | -35.82038 | 143.57463 | 34264 ft | 479 kts | 340° |
| 2026-04-30 18:42 | -35.72532 | 143.53611 | 34263 ft | 480 kts | 340° |
| 2026-04-30 18:45 | -35.37676 | 143.39569 | 34263 ft | 479 kts | 340° |
| 2026-04-30 18:46 | -35.31341 | 143.37031 | 34262 ft | 479 kts | 340° |
| 2026-04-30 18:46 | -35.25001 | 143.34494 | 34261 ft | 479 kts | 340° |
| 2026-04-30 18:47 | -35.18669 | 143.31965 | 34261 ft | 479 kts | 340° |
| 2026-04-30 18:47 | -35.12327 | 143.29436 | 34258 ft | 479 kts | 340° |
| 2026-04-30 18:48 | -35.05987 | 143.26911 | 34252 ft | 479 kts | 340° |
| 2026-04-30 18:48 | -34.99642 | 143.24389 | 34253 ft | 480 kts | 340° |
| 2026-04-30 18:49 | -34.94490 | 143.21940 | 34249 ft | 478 kts | 332° |
| 2026-04-30 18:49 | -34.88578 | 143.18265 | 34259 ft | 477 kts | 331° |
| 2026-04-30 18:50 | -34.82666 | 143.14572 | 34254 ft | 478 kts | 331° |
| 2026-04-30 18:50 | -34.76740 | 143.10914 | 34254 ft | 478 kts | 331° |
| 2026-04-30 18:51 | -34.70807 | 143.07280 | 34247 ft | 478 kts | 332° |
| 2026-04-30 18:51 | -34.64869 | 143.03653 | 34250 ft | 477 kts | 332° |
| 2026-04-30 18:52 | -34.58940 | 143.00035 | 34253 ft | 477 kts | 332° |
| 2026-04-30 18:52 | -34.53012 | 142.96423 | 34248 ft | 476 kts | 332° |
| 2026-04-30 18:53 | -34.47091 | 142.92820 | 34246 ft | 476 kts | 331° |
| 2026-04-30 18:53 | -34.41172 | 142.89224 | 34244 ft | 476 kts | 331° |
| 2026-04-30 18:54 | -34.35252 | 142.85634 | 34247 ft | 476 kts | 331° |
| 2026-04-30 18:54 | -34.29334 | 142.82051 | 34245 ft | 475 kts | 331° |
| 2026-04-30 18:55 | -34.23416 | 142.78473 | 34243 ft | 475 kts | 331° |
| 2026-04-30 18:55 | -34.14583 | 142.73143 | 34247 ft | 475 kts | 331° |
| 2026-04-30 18:56 | -34.05711 | 142.67801 | 34243 ft | 475 kts | 331° |
| 2026-04-30 18:57 | -33.96836 | 142.62471 | 34238 ft | 475 kts | 331° |
| 2026-04-30 18:57 | -33.90922 | 142.58925 | 34238 ft | 475 kts | 331° |
| 2026-04-30 18:58 | -33.82050 | 142.53619 | 34240 ft | 475 kts | 331° |
| 2026-04-30 18:59 | -33.73161 | 142.48350 | 34241 ft | 475 kts | 331° |
| 2026-04-30 19:00 | -33.61322 | 142.41348 | 34235 ft | 474 kts | 331° |
| 2026-04-30 19:01 | -33.49480 | 142.34361 | 34228 ft | 474 kts | 331° |
| 2026-04-30 19:02 | -33.40596 | 142.29133 | 34235 ft | 474 kts | 330° |
| 2026-04-30 19:03 | -33.28737 | 142.22174 | 34239 ft | 475 kts | 330° |
| 2026-04-30 19:04 | -33.16860 | 142.15225 | 34229 ft | 476 kts | 330° |
| 2026-04-30 19:05 | -33.05000 | 142.08307 | 34231 ft | 476 kts | 330° |
| 2026-04-30 19:06 | -32.93078 | 142.01373 | 34222 ft | 477 kts | 330° |
| 2026-04-30 19:06 | -32.84123 | 141.96180 | 34223 ft | 477 kts | 329° |
| 2026-04-30 19:07 | -32.75162 | 141.90994 | 34223 ft | 478 kts | 329° |
| 2026-04-30 19:08 | -32.63203 | 141.84090 | 34220 ft | 478 kts | 329° |
| 2026-04-30 19:09 | -32.54234 | 141.78927 | 34224 ft | 478 kts | 329° |
| 2026-04-30 19:09 | -32.48256 | 141.75493 | 34218 ft | 477 kts | 329° |
| 2026-04-30 19:10 | -32.36310 | 141.68643 | 34226 ft | 477 kts | 329° |
| 2026-04-30 19:11 | -32.27353 | 141.63520 | 34224 ft | 477 kts | 329° |
| 2026-04-30 19:12 | -32.21387 | 141.60115 | 34221 ft | 476 kts | 329° |
| 2026-04-30 19:12 | -32.15418 | 141.56712 | 34222 ft | 476 kts | 329° |
| 2026-04-30 19:13 | -32.03483 | 141.49922 | 34219 ft | 476 kts | 329° |
| 2026-04-30 19:14 | -31.97651 | 141.46305 | 34221 ft | 471 kts | 323° |
| 2026-04-30 19:14 | -31.92106 | 141.42202 | 34215 ft | 470 kts | 323° |
| 2026-04-30 19:15 | -31.86576 | 141.38098 | 34219 ft | 470 kts | 323° |
| 2026-04-30 19:15 | -31.78287 | 141.32018 | 34217 ft | 470 kts | 323° |
| 2026-04-30 19:16 | -31.72737 | 141.27967 | 34210 ft | 469 kts | 323° |
| 2026-04-30 19:17 | -31.64421 | 141.21906 | 34206 ft | 469 kts | 323° |
| 2026-04-30 19:17 | -31.56116 | 141.15864 | 34206 ft | 468 kts | 324° |
| 2026-04-30 19:18 | -31.47810 | 141.09834 | 34202 ft | 468 kts | 323° |
| 2026-04-30 19:19 | -31.42275 | 141.05822 | 34200 ft | 468 kts | 324° |
| 2026-04-30 19:19 | -31.33963 | 140.99810 | 34192 ft | 468 kts | 324° |
| 2026-04-30 19:20 | -31.28409 | 140.95822 | 34194 ft | 468 kts | 324° |
| 2026-04-30 19:21 | -31.20080 | 140.89859 | 34194 ft | 468 kts | 324° |
| 2026-04-30 19:22 | -31.08982 | 140.81924 | 34203 ft | 467 kts | 323° |
| 2026-04-30 19:23 | -30.92395 | 140.70104 | 34187 ft | 464 kts | 323° |
| 2026-04-30 19:24 | -30.84138 | 140.64238 | 34182 ft | 463 kts | 323° |
| 2026-04-30 19:25 | -30.70415 | 140.54514 | 34176 ft | 461 kts | 323° |
| 2026-04-30 19:26 | -30.59464 | 140.46778 | 34176 ft | 460 kts | 323° |
| 2026-04-30 19:27 | -30.51294 | 140.41020 | 34174 ft | 460 kts | 323° |
| 2026-04-30 19:28 | -30.43101 | 140.35258 | 34171 ft | 459 kts | 323° |
| 2026-04-30 19:29 | -30.32410 | 140.27756 | 34171 ft | 458 kts | 323° |
| 2026-04-30 19:30 | -30.21514 | 140.20130 | 34168 ft | 457 kts | 323° |
| 2026-04-30 19:31 | -30.10630 | 140.12531 | 34170 ft | 457 kts | 324° |
| 2026-04-30 19:31 | -30.02473 | 140.06849 | 34167 ft | 456 kts | 324° |
| 2026-04-30 19:32 | -29.97037 | 140.03069 | 34161 ft | 456 kts | 324° |
| 2026-04-30 19:32 | -29.91596 | 139.99290 | 34166 ft | 456 kts | 324° |
| 2026-04-30 19:33 | -29.86157 | 139.95518 | 34163 ft | 456 kts | 324° |
| 2026-04-30 19:33 | -29.80714 | 139.91747 | 34166 ft | 456 kts | 324° |
| 2026-04-30 19:34 | -29.75271 | 139.87981 | 34165 ft | 456 kts | 324° |
| 2026-04-30 19:35 | -29.67134 | 139.82376 | 34165 ft | 457 kts | 326° |
| 2026-04-30 19:35 | -29.61538 | 139.78865 | 34159 ft | 459 kts | 327° |
| 2026-04-30 19:36 | -29.55885 | 139.75442 | 34160 ft | 459 kts | 327° |
| 2026-04-30 19:36 | -29.47417 | 139.70263 | 34158 ft | 460 kts | 327° |
| 2026-04-30 19:37 | -29.42688 | 139.67349 | 34158 ft | 461 kts | 327° |
| 2026-04-30 19:37 | -29.37031 | 139.63861 | 34157 ft | 462 kts | 327° |
| 2026-04-30 19:38 | -29.31364 | 139.60371 | 34154 ft | 463 kts | 327° |
| 2026-04-30 19:38 | -29.25677 | 139.56875 | 34152 ft | 464 kts | 327° |
| 2026-04-30 19:39 | -29.19982 | 139.53380 | 34149 ft | 465 kts | 327° |
| 2026-04-30 19:39 | -29.14277 | 139.49883 | 34145 ft | 466 kts | 327° |
| 2026-04-30 19:40 | -29.08562 | 139.46384 | 34148 ft | 466 kts | 327° |
| 2026-04-30 19:40 | -29.02845 | 139.42888 | 34144 ft | 466 kts | 327° |
| 2026-04-30 19:41 | -28.97133 | 139.39400 | 34141 ft | 465 kts | 326° |
| 2026-04-30 19:41 | -28.91462 | 139.35941 | 34142 ft | 465 kts | 326° |
| 2026-04-30 19:42 | -28.85758 | 139.32466 | 34142 ft | 464 kts | 326° |
| 2026-04-30 19:42 | -28.80059 | 139.28998 | 34140 ft | 464 kts | 326° |
| 2026-04-30 19:43 | -28.74366 | 139.25538 | 34141 ft | 464 kts | 326° |
| 2026-04-30 19:44 | -28.65835 | 139.20363 | 34137 ft | 463 kts | 326° |
| 2026-04-30 19:44 | -28.60156 | 139.16922 | 34139 ft | 462 kts | 326° |
| 2026-04-30 19:45 | -28.54480 | 139.13488 | 34140 ft | 462 kts | 326° |
| 2026-04-30 19:45 | -28.48811 | 139.10062 | 34141 ft | 461 kts | 326° |
| 2026-04-30 19:46 | -28.43145 | 139.06642 | 34150 ft | 461 kts | 326° |
| 2026-04-30 19:46 | -28.37484 | 139.03229 | 34133 ft | 461 kts | 326° |
| 2026-04-30 19:47 | -28.31811 | 138.99812 | 34215 ft | 464 kts | 326° |
| 2026-04-30 19:47 | -28.29922 | 138.98674 | 34357 ft | 466 kts | 326° |
| 2026-04-30 19:47 | -28.26089 | 138.96368 | 34701 ft | 466 kts | 326° |
| 2026-04-30 19:47 | -28.23225 | 138.94649 | 35028 ft | 465 kts | 326° |
| 2026-04-30 19:48 | -28.20365 | 138.92933 | 35367 ft | 464 kts | 326° |
| 2026-04-30 19:48 | -28.17515 | 138.91225 | 35666 ft | 463 kts | 326° |
| 2026-04-30 19:48 | -28.14666 | 138.89517 | 35976 ft | 463 kts | 325° |
| 2026-04-30 19:49 | -28.08943 | 138.86084 | 36106 ft | 467 kts | 325° |
| 2026-04-30 19:49 | -28.00326 | 138.80929 | 36128 ft | 468 kts | 326° |
| 2026-04-30 19:50 | -27.94555 | 138.77481 | 36127 ft | 470 kts | 325° |
| 2026-04-30 19:50 | -27.88756 | 138.74022 | 36122 ft | 471 kts | 326° |
| 2026-04-30 19:51 | -27.82996 | 138.70590 | 36124 ft | 471 kts | 326° |
| 2026-04-30 19:51 | -27.77197 | 138.67139 | 36124 ft | 471 kts | 326° |
| 2026-04-30 19:52 | -27.71408 | 138.63699 | 36117 ft | 470 kts | 325° |
| 2026-04-30 19:52 | -27.65634 | 138.60271 | 36120 ft | 468 kts | 325° |
| 2026-04-30 19:53 | -27.59873 | 138.56854 | 36121 ft | 467 kts | 325° |
| 2026-04-30 19:53 | -27.54121 | 138.53447 | 36119 ft | 467 kts | 325° |
| 2026-04-30 19:54 | -27.48378 | 138.50049 | 36122 ft | 466 kts | 325° |
| 2026-04-30 19:54 | -27.42637 | 138.46656 | 36115 ft | 466 kts | 325° |
| 2026-04-30 19:55 | -27.36894 | 138.43266 | 36115 ft | 466 kts | 325° |
| 2026-04-30 19:55 | -27.31146 | 138.39877 | 36112 ft | 466 kts | 325° |
| 2026-04-30 19:56 | -27.25398 | 138.36492 | 36116 ft | 467 kts | 325° |
| 2026-04-30 19:56 | -27.19638 | 138.33104 | 36119 ft | 467 kts | 325° |
| 2026-04-30 19:57 | -27.13870 | 138.29715 | 36112 ft | 468 kts | 325° |
| 2026-04-30 19:57 | -27.08404 | 138.26508 | 36111 ft | 468 kts | 325° |
| 2026-04-30 19:58 | -27.02628 | 138.23122 | 36105 ft | 468 kts | 325° |
| 2026-04-30 19:58 | -26.96857 | 138.19742 | 36118 ft | 468 kts | 325° |
| 2026-04-30 19:59 | -26.91079 | 138.16363 | 36105 ft | 468 kts | 325° |
| 2026-04-30 20:00 | -26.82453 | 138.11332 | 36107 ft | 468 kts | 325° |
| 2026-04-30 20:00 | -26.76675 | 138.07966 | 36107 ft | 468 kts | 325° |
| 2026-04-30 20:01 | -26.68010 | 138.02922 | 36103 ft | 469 kts | 325° |
| 2026-04-30 20:01 | -26.62221 | 137.99558 | 36101 ft | 469 kts | 325° |
| 2026-04-30 20:02 | -26.53527 | 137.94512 | 36103 ft | 470 kts | 325° |
| 2026-04-30 20:03 | -26.44820 | 137.89468 | 36109 ft | 470 kts | 325° |
| 2026-04-30 20:03 | -26.39005 | 137.86104 | 36103 ft | 471 kts | 325° |
| 2026-04-30 20:04 | -26.33181 | 137.82739 | 36105 ft | 471 kts | 325° |
| 2026-04-30 20:05 | -26.24434 | 137.77691 | 36100 ft | 472 kts | 325° |
| 2026-04-30 20:05 | -26.15685 | 137.72652 | 36102 ft | 472 kts | 325° |
| 2026-04-30 20:06 | -26.09847 | 137.69293 | 36098 ft | 472 kts | 325° |
| 2026-04-30 20:06 | -26.04010 | 137.65940 | 36104 ft | 472 kts | 325° |
| 2026-04-30 20:07 | -25.98169 | 137.62587 | 36106 ft | 472 kts | 325° |
| 2026-04-30 20:08 | -25.89407 | 137.57566 | 36103 ft | 472 kts | 325° |
| 2026-04-30 20:08 | -25.83561 | 137.54219 | 36105 ft | 473 kts | 325° |
| 2026-04-30 20:09 | -25.77714 | 137.50877 | 36101 ft | 473 kts | 325° |
| 2026-04-30 20:09 | -25.68934 | 137.45865 | 36101 ft | 473 kts | 325° |
| 2026-04-30 20:10 | -25.60153 | 137.40860 | 36104 ft | 474 kts | 325° |
| 2026-04-30 20:11 | -25.51349 | 137.35851 | 36102 ft | 474 kts | 325° |
| 2026-04-30 20:11 | -25.45518 | 137.32537 | 36101 ft | 474 kts | 325° |
| 2026-04-30 20:12 | -25.36711 | 137.27541 | 36104 ft | 474 kts | 325° |
| 2026-04-30 20:13 | -25.30833 | 137.24209 | 36104 ft | 475 kts | 325° |
| 2026-04-30 20:13 | -25.24950 | 137.20880 | 36100 ft | 475 kts | 325° |
| 2026-04-30 20:14 | -25.19067 | 137.17554 | 36106 ft | 475 kts | 325° |
| 2026-04-30 20:14 | -25.13178 | 137.14227 | 36101 ft | 476 kts | 326° |
| 2026-04-30 20:15 | -25.07289 | 137.10905 | 36101 ft | 475 kts | 326° |
| 2026-04-30 20:15 | -25.01394 | 137.07583 | 36105 ft | 475 kts | 326° |
| 2026-04-30 20:16 | -24.95507 | 137.04269 | 36103 ft | 475 kts | 326° |
| 2026-04-30 20:16 | -24.89617 | 137.00957 | 36106 ft | 475 kts | 326° |
| 2026-04-30 20:17 | -24.83731 | 136.97651 | 36103 ft | 475 kts | 326° |
| 2026-04-30 20:17 | -24.77847 | 136.94348 | 36103 ft | 475 kts | 326° |
| 2026-04-30 20:18 | -24.71965 | 136.91051 | 36101 ft | 474 kts | 326° |
| 2026-04-30 20:18 | -24.66086 | 136.87759 | 36103 ft | 474 kts | 326° |
| 2026-04-30 20:19 | -24.60207 | 136.84471 | 36103 ft | 474 kts | 326° |
| 2026-04-30 20:19 | -24.54328 | 136.81185 | 36105 ft | 474 kts | 326° |
| 2026-04-30 20:20 | -24.48447 | 136.77901 | 36099 ft | 474 kts | 326° |
| 2026-04-30 20:20 | -24.42562 | 136.74620 | 36096 ft | 475 kts | 326° |
| 2026-04-30 20:21 | -24.36667 | 136.71340 | 36109 ft | 475 kts | 326° |
| 2026-04-30 20:21 | -24.30773 | 136.68064 | 36102 ft | 475 kts | 326° |
| 2026-04-30 20:22 | -24.24880 | 136.64789 | 36108 ft | 475 kts | 326° |
| 2026-04-30 20:22 | -24.19979 | 136.62068 | 36098 ft | 475 kts | 326° |
| 2026-04-30 20:23 | -24.14076 | 136.58795 | 36093 ft | 476 kts | 326° |
| 2026-04-30 20:23 | -24.08168 | 136.55522 | 36109 ft | 476 kts | 326° |
| 2026-04-30 20:24 | -24.02264 | 136.52254 | 36105 ft | 476 kts | 326° |
| 2026-04-30 20:24 | -23.96348 | 136.48983 | 36109 ft | 476 kts | 327° |
| 2026-04-30 20:25 | -23.87474 | 136.44083 | 36110 ft | 476 kts | 327° |
| 2026-04-30 20:26 | -23.78594 | 136.39188 | 36110 ft | 477 kts | 327° |
| 2026-04-30 20:26 | -23.69711 | 136.34299 | 36109 ft | 477 kts | 327° |
| 2026-04-30 20:27 | -23.57863 | 136.27788 | 36109 ft | 477 kts | 327° |
| 2026-04-30 20:28 | -23.46007 | 136.21287 | 36108 ft | 477 kts | 327° |
| 2026-04-30 20:30 | -23.31217 | 136.13195 | 36113 ft | 477 kts | 327° |
| 2026-04-30 20:31 | -23.13413 | 136.03481 | 36113 ft | 477 kts | 327° |
| 2026-04-30 20:32 | -22.98560 | 135.95399 | 36112 ft | 478 kts | 327° |
| 2026-04-30 20:33 | -22.89636 | 135.90552 | 36101 ft | 478 kts | 327° |
| 2026-04-30 20:34 | -22.80711 | 135.85711 | 36111 ft | 478 kts | 327° |
| 2026-04-30 20:35 | -22.71777 | 135.80874 | 36112 ft | 479 kts | 327° |
| 2026-04-30 20:35 | -22.62832 | 135.76040 | 36108 ft | 479 kts | 327° |
| 2026-04-30 20:36 | -22.56868 | 135.72818 | 36109 ft | 479 kts | 327° |
| 2026-04-30 20:37 | -22.47916 | 135.67989 | 36107 ft | 480 kts | 327° |
| 2026-04-30 20:37 | -22.41941 | 135.64769 | 36104 ft | 480 kts | 327° |
| 2026-04-30 20:38 | -22.35962 | 135.61550 | 36104 ft | 480 kts | 327° |
| 2026-04-30 20:38 | -22.30023 | 135.58357 | 36106 ft | 480 kts | 327° |
| 2026-04-30 20:39 | -22.21055 | 135.53540 | 36102 ft | 480 kts | 327° |
| 2026-04-30 20:40 | -22.12088 | 135.48730 | 36105 ft | 480 kts | 327° |
| 2026-04-30 20:40 | -22.06107 | 135.45525 | 36105 ft | 480 kts | 327° |
| 2026-04-30 20:41 | -21.97128 | 135.40720 | 36103 ft | 481 kts | 327° |
| 2026-04-30 20:41 | -21.91135 | 135.37517 | 36102 ft | 481 kts | 327° |
| 2026-04-30 20:42 | -21.85139 | 135.34315 | 36105 ft | 481 kts | 327° |
| 2026-04-30 20:43 | -21.76140 | 135.29516 | 36105 ft | 482 kts | 327° |
| 2026-04-30 20:43 | -21.70132 | 135.26314 | 36103 ft | 482 kts | 328° |
| 2026-04-30 20:44 | -21.61118 | 135.21518 | 36103 ft | 482 kts | 328° |
| 2026-04-30 20:45 | -21.49081 | 135.15122 | 36099 ft | 483 kts | 328° |
| 2026-04-30 20:45 | -21.43217 | 135.12011 | 36099 ft | 483 kts | 328° |
| 2026-04-30 20:46 | -21.31154 | 135.05637 | 36097 ft | 483 kts | 328° |
| 2026-04-30 20:47 | -21.22101 | 135.00862 | 36094 ft | 484 kts | 328° |
| 2026-04-30 20:48 | -21.13043 | 134.96090 | 36099 ft | 484 kts | 328° |
| 2026-04-30 20:48 | -21.06997 | 134.92907 | 36091 ft | 484 kts | 328° |
| 2026-04-30 20:49 | -21.00945 | 134.89725 | 36090 ft | 485 kts | 328° |
| 2026-04-30 20:50 | -20.91906 | 134.84977 | 36090 ft | 485 kts | 328° |
| 2026-04-30 20:50 | -20.85855 | 134.81802 | 36078 ft | 485 kts | 328° |
| 2026-04-30 20:51 | -20.79799 | 134.78628 | 36094 ft | 485 kts | 328° |
| 2026-04-30 20:51 | -20.70716 | 134.73872 | 36090 ft | 485 kts | 328° |
| 2026-04-30 20:52 | -20.64656 | 134.70702 | 36090 ft | 485 kts | 328° |
| 2026-04-30 20:53 | -20.55570 | 134.65956 | 36082 ft | 485 kts | 328° |
| 2026-04-30 20:53 | -20.49512 | 134.62795 | 36089 ft | 485 kts | 328° |
| 2026-04-30 20:54 | -20.40416 | 134.58053 | 36077 ft | 485 kts | 328° |
| 2026-04-30 20:55 | -20.31327 | 134.53321 | 36076 ft | 485 kts | 328° |
| 2026-04-30 20:55 | -20.25259 | 134.50166 | 36078 ft | 485 kts | 328° |
| 2026-04-30 20:56 | -20.16158 | 134.45438 | 36072 ft | 485 kts | 328° |
| 2026-04-30 20:57 | -20.07062 | 134.40719 | 36068 ft | 485 kts | 328° |
| 2026-04-30 20:57 | -20.00992 | 134.37573 | 36068 ft | 485 kts | 328° |
| 2026-04-30 20:58 | -19.91896 | 134.32864 | 36074 ft | 485 kts | 328° |
| 2026-04-30 20:58 | -19.85827 | 134.29726 | 36066 ft | 485 kts | 328° |
| 2026-04-30 20:59 | -19.76715 | 134.25018 | 36061 ft | 485 kts | 328° |
| 2026-04-30 21:00 | -19.64604 | 134.18776 | 36066 ft | 486 kts | 329° |
| 2026-04-30 21:01 | -19.55024 | 134.15023 | 36065 ft | 491 kts | 336° |
| 2026-04-30 21:02 | -19.45313 | 134.11553 | 36060 ft | 491 kts | 336° |
| 2026-04-30 21:02 | -19.38849 | 134.09210 | 36056 ft | 491 kts | 336° |
| 2026-04-30 21:03 | -19.32398 | 134.06859 | 36061 ft | 490 kts | 336° |
| 2026-04-30 21:03 | -19.25947 | 134.04509 | 36064 ft | 490 kts | 336° |
| 2026-04-30 21:04 | -19.19496 | 134.02161 | 36058 ft | 490 kts | 336° |
| 2026-04-30 21:04 | -19.09815 | 133.98644 | 36058 ft | 490 kts | 336° |
| 2026-04-30 21:05 | -19.03361 | 133.96301 | 36059 ft | 490 kts | 336° |
| 2026-04-30 21:05 | -18.96905 | 133.93960 | 36062 ft | 490 kts | 336° |
| 2026-04-30 21:06 | -18.90457 | 133.91624 | 36058 ft | 490 kts | 336° |
| 2026-04-30 21:06 | -18.84009 | 133.89290 | 36062 ft | 490 kts | 336° |
| 2026-04-30 21:07 | -18.77563 | 133.86957 | 36060 ft | 490 kts | 336° |
| 2026-04-30 21:07 | -18.71114 | 133.84626 | 36052 ft | 490 kts | 336° |
| 2026-04-30 21:08 | -18.64667 | 133.82298 | 36050 ft | 490 kts | 337° |
| 2026-04-30 21:08 | -18.59303 | 133.80362 | 36056 ft | 490 kts | 337° |
| 2026-04-30 21:09 | -18.52855 | 133.78037 | 36053 ft | 490 kts | 337° |
| 2026-04-30 21:09 | -18.46410 | 133.75714 | 36051 ft | 490 kts | 337° |
| 2026-04-30 21:10 | -18.39958 | 133.73391 | 36050 ft | 490 kts | 337° |
| 2026-04-30 21:10 | -18.33505 | 133.71069 | 36053 ft | 490 kts | 337° |
| 2026-04-30 21:11 | -18.27049 | 133.68748 | 36045 ft | 491 kts | 337° |
| 2026-04-30 21:11 | -18.20585 | 133.66427 | 36046 ft | 491 kts | 337° |
| 2026-04-30 21:12 | -18.14126 | 133.64108 | 36048 ft | 491 kts | 337° |
| 2026-04-30 21:12 | -18.07664 | 133.61791 | 36047 ft | 491 kts | 337° |
| 2026-04-30 21:13 | -18.01191 | 133.59471 | 36051 ft | 491 kts | 337° |
| 2026-04-30 21:13 | -17.94720 | 133.57154 | 36051 ft | 492 kts | 338° |
| 2026-04-30 21:14 | -17.88290 | 133.54853 | 36047 ft | 492 kts | 338° |
| 2026-04-30 21:14 | -17.81810 | 133.52536 | 36050 ft | 492 kts | 338° |
| 2026-04-30 21:15 | -17.75335 | 133.50223 | 36045 ft | 492 kts | 338° |
| 2026-04-30 21:15 | -17.68856 | 133.47910 | 36048 ft | 492 kts | 338° |
| 2026-04-30 21:16 | -17.62381 | 133.45600 | 36055 ft | 492 kts | 338° |
| 2026-04-30 21:16 | -17.55901 | 133.43290 | 36043 ft | 492 kts | 338° |
| 2026-04-30 21:17 | -17.49422 | 133.40982 | 36046 ft | 492 kts | 338° |
| 2026-04-30 21:17 | -17.42946 | 133.38677 | 36041 ft | 492 kts | 338° |
| 2026-04-30 21:18 | -17.36468 | 133.36373 | 36053 ft | 492 kts | 338° |
| 2026-04-30 21:18 | -17.29992 | 133.34071 | 36051 ft | 492 kts | 338° |
| 2026-04-30 21:19 | -17.23510 | 133.31770 | 36037 ft | 492 kts | 338° |
| 2026-04-30 21:19 | -17.17032 | 133.29471 | 36047 ft | 492 kts | 338° |
| 2026-04-30 21:20 | -17.10552 | 133.27173 | 36044 ft | 492 kts | 338° |
| 2026-04-30 21:20 | -17.04067 | 133.24879 | 36039 ft | 492 kts | 338° |
| 2026-04-30 21:21 | -16.97594 | 133.22585 | 36042 ft | 492 kts | 338° |
| 2026-04-30 21:22 | -16.87877 | 133.19148 | 36046 ft | 491 kts | 338° |
| 2026-04-30 21:23 | -16.74922 | 133.14598 | 36048 ft | 491 kts | 338° |
| 2026-04-30 21:23 | -16.65254 | 133.11202 | 36045 ft | 490 kts | 338° |
| 2026-04-30 21:24 | -16.58752 | 133.08919 | 36041 ft | 490 kts | 338° |
| 2026-04-30 21:24 | -16.52284 | 133.06650 | 36041 ft | 490 kts | 338° |
| 2026-04-30 21:25 | -16.42613 | 133.03260 | 36042 ft | 489 kts | 338° |
| 2026-04-30 21:26 | -16.32937 | 132.99872 | 36038 ft | 489 kts | 338° |
| 2026-04-30 21:27 | -16.23274 | 132.96492 | 36038 ft | 488 kts | 338° |
| 2026-04-30 21:27 | -16.16835 | 132.94242 | 36039 ft | 488 kts | 338° |
| 2026-04-30 21:28 | -16.07182 | 132.90872 | 36034 ft | 487 kts | 338° |
| 2026-04-30 21:29 | -15.97548 | 132.87511 | 36031 ft | 486 kts | 338° |
| 2026-04-30 21:30 | -15.81563 | 132.81943 | 36033 ft | 485 kts | 338° |
| 2026-04-30 21:31 | -15.65576 | 132.76383 | 36028 ft | 484 kts | 338° |
| 2026-04-30 21:32 | -15.55995 | 132.73056 | 36032 ft | 483 kts | 338° |
| 2026-04-30 21:32 | -15.49624 | 132.70845 | 36025 ft | 483 kts | 338° |
| 2026-04-30 21:33 | -15.40064 | 132.67530 | 36029 ft | 482 kts | 338° |
| 2026-04-30 21:34 | -15.33698 | 132.65324 | 36028 ft | 482 kts | 338° |
| 2026-04-30 21:34 | -15.24154 | 132.62020 | 36024 ft | 482 kts | 338° |
| 2026-04-30 21:35 | -15.17796 | 132.59821 | 36024 ft | 482 kts | 338° |
| 2026-04-30 21:35 | -15.11435 | 132.57622 | 36022 ft | 482 kts | 338° |
| 2026-04-30 21:36 | -15.05080 | 132.55426 | 36023 ft | 482 kts | 338° |
| 2026-04-30 21:37 | -14.92410 | 132.51048 | 36018 ft | 482 kts | 338° |
| 2026-04-30 21:37 | -14.86049 | 132.48853 | 36021 ft | 482 kts | 338° |
| 2026-04-30 21:38 | -14.79690 | 132.46663 | 36011 ft | 482 kts | 338° |
| 2026-04-30 21:38 | -14.73329 | 132.44472 | 36005 ft | 482 kts | 338° |
| 2026-04-30 21:39 | -14.66965 | 132.42282 | 35999 ft | 482 kts | 338° |
| 2026-04-30 21:39 | -14.60602 | 132.40092 | 35994 ft | 482 kts | 338° |
| 2026-04-30 21:40 | -14.54242 | 132.37908 | 35994 ft | 482 kts | 338° |
| 2026-04-30 21:40 | -14.47678 | 132.36323 | 35996 ft | 487 kts | 347° |
| 2026-04-30 21:41 | -14.40963 | 132.35311 | 35999 ft | 488 kts | 348° |
| 2026-04-30 21:41 | -14.34245 | 132.34267 | 36000 ft | 488 kts | 347° |
| 2026-04-30 21:42 | -14.27534 | 132.33186 | 36002 ft | 488 kts | 347° |
| 2026-04-30 21:42 | -14.21071 | 132.31283 | 36017 ft | 481 kts | 333° |
| 2026-04-30 21:43 | -14.15239 | 132.28014 | 36013 ft | 475 kts | 323° |
| 2026-04-30 21:43 | -14.09803 | 132.24134 | 36009 ft | 476 kts | 322° |
| 2026-04-30 21:44 | -14.04368 | 132.20234 | 36012 ft | 477 kts | 322° |
| 2026-04-30 21:44 | -13.98899 | 132.16361 | 36005 ft | 477 kts | 322° |
| 2026-04-30 21:45 | -13.93414 | 132.12506 | 36010 ft | 478 kts | 323° |
| 2026-04-30 21:45 | -13.87923 | 132.08651 | 36006 ft | 478 kts | 323° |
| 2026-04-30 21:46 | -13.82433 | 132.04799 | 36009 ft | 478 kts | 323° |
| 2026-04-30 21:46 | -13.76932 | 132.00939 | 36006 ft | 478 kts | 323° |
| 2026-04-30 21:47 | -13.71431 | 131.97081 | 36007 ft | 479 kts | 323° |
| 2026-04-30 21:47 | -13.65929 | 131.93223 | 36006 ft | 479 kts | 323° |
| 2026-04-30 21:48 | -13.60422 | 131.89365 | 36002 ft | 479 kts | 323° |
| 2026-04-30 21:48 | -13.55017 | 131.85584 | 35660 ft | 461 kts | 323° |
| 2026-04-30 21:49 | -13.52368 | 131.83729 | 34937 ft | 462 kts | 323° |
| 2026-04-30 21:49 | -13.49698 | 131.81858 | 34048 ft | 467 kts | 323° |
| 2026-04-30 21:49 | -13.46996 | 131.79965 | 33000 ft | 473 kts | 323° |
| 2026-04-30 21:49 | -13.44265 | 131.78055 | 32085 ft | 476 kts | 323° |
| 2026-04-30 21:50 | -13.41534 | 131.76147 | 31490 ft | 472 kts | 323° |
| 2026-04-30 21:50 | -13.38835 | 131.74262 | 31005 ft | 466 kts | 323° |
| 2026-04-30 21:50 | -13.36167 | 131.72397 | 30536 ft | 461 kts | 323° |
| 2026-04-30 21:50 | -13.33565 | 131.70579 | 30013 ft | 457 kts | 323° |
| 2026-04-30 21:51 | -13.30911 | 131.68723 | 29312 ft | 455 kts | 323° |
| 2026-04-30 21:51 | -13.28295 | 131.66892 | 28621 ft | 454 kts | 324° |
| 2026-04-30 21:51 | -13.25689 | 131.65070 | 27967 ft | 453 kts | 324° |
| 2026-04-30 21:51 | -13.23125 | 131.63278 | 27349 ft | 451 kts | 324° |
| 2026-04-30 21:52 | -13.20535 | 131.61468 | 26757 ft | 449 kts | 324° |
| 2026-04-30 21:52 | -13.17924 | 131.59645 | 26164 ft | 448 kts | 325° |
| 2026-04-30 21:52 | -13.15352 | 131.57850 | 25592 ft | 446 kts | 325° |
| 2026-04-30 21:52 | -13.12823 | 131.56084 | 25042 ft | 445 kts | 325° |
| 2026-04-30 21:53 | -13.10234 | 131.54278 | 24483 ft | 444 kts | 326° |
| 2026-04-30 21:53 | -13.07712 | 131.52518 | 23948 ft | 443 kts | 326° |
| 2026-04-30 21:53 | -13.05166 | 131.50742 | 23399 ft | 443 kts | 326° |
| 2026-04-30 21:53 | -13.02627 | 131.48972 | 22849 ft | 440 kts | 326° |
| 2026-04-30 21:54 | -13.00109 | 131.47219 | 22399 ft | 435 kts | 326° |
| 2026-04-30 21:54 | -12.97621 | 131.45488 | 21952 ft | 430 kts | 326° |
| 2026-04-30 21:54 | -12.95152 | 131.43769 | 21498 ft | 427 kts | 326° |
| 2026-04-30 21:54 | -12.92704 | 131.42066 | 21025 ft | 424 kts | 326° |
| 2026-04-30 21:55 | -12.90275 | 131.40376 | 20566 ft | 421 kts | 326° |
| 2026-04-30 21:55 | -12.88643 | 131.39241 | 20253 ft | 419 kts | 327° |
| 2026-04-30 21:55 | -12.86237 | 131.37567 | 19828 ft | 416 kts | 327° |
| 2026-04-30 21:55 | -12.83851 | 131.35908 | 19403 ft | 413 kts | 327° |
| 2026-04-30 21:56 | -12.81482 | 131.34261 | 18988 ft | 410 kts | 327° |
| 2026-04-30 21:56 | -12.79134 | 131.32628 | 18599 ft | 406 kts | 327° |
| 2026-04-30 21:56 | -12.76831 | 131.31028 | 18201 ft | 404 kts | 327° |
| 2026-04-30 21:56 | -12.74517 | 131.29420 | 17740 ft | 401 kts | 327° |
| 2026-04-30 21:57 | -12.72217 | 131.27822 | 17278 ft | 399 kts | 327° |
| 2026-04-30 21:57 | -12.69929 | 131.26232 | 16821 ft | 397 kts | 327° |
| 2026-04-30 21:57 | -12.67619 | 131.24629 | 16382 ft | 394 kts | 327° |
| 2026-04-30 21:57 | -12.65389 | 131.23081 | 15960 ft | 392 kts | 326° |
| 2026-04-30 21:58 | -12.63140 | 131.21518 | 15544 ft | 388 kts | 326° |
| 2026-04-30 21:58 | -12.61863 | 131.20480 | 15199 ft | 386 kts | 315° |
| 2026-04-30 21:58 | -12.60285 | 131.18252 | 14599 ft | 390 kts | 294° |
| 2026-04-30 21:58 | -12.59372 | 131.15669 | 14125 ft | 381 kts | 287° |
| 2026-04-30 21:59 | -12.58572 | 131.13117 | 13518 ft | 368 kts | 287° |
| 2026-04-30 21:59 | -12.57795 | 131.10692 | 12857 ft | 350 kts | 288° |
| 2026-04-30 21:59 | -12.57041 | 131.08380 | 12235 ft | 335 kts | 288° |
| 2026-04-30 22:00 | -12.55611 | 131.04043 | 11024 ft | 309 kts | 289° |
| 2026-04-30 22:00 | -12.54274 | 131.00012 | 9853 ft | 290 kts | 289° |
| 2026-04-30 22:00 | -12.53633 | 130.98086 | 9218 ft | 283 kts | 289° |
| 2026-04-30 22:01 | -12.53004 | 130.96196 | 8598 ft | 280 kts | 289° |
| 2026-04-30 22:01 | -12.52366 | 130.94280 | 8120 ft | 289 kts | 289° |
| 2026-04-30 22:01 | -12.51708 | 130.92306 | 7656 ft | 295 kts | 289° |
| 2026-04-30 22:01 | -12.51042 | 130.90307 | 7181 ft | 298 kts | 289° |
| 2026-04-30 22:02 | -12.50372 | 130.88297 | 6727 ft | 300 kts | 289° |
| 2026-04-30 22:02 | -12.49698 | 130.86273 | 6252 ft | 301 kts | 289° |
| 2026-04-30 22:02 | -12.49016 | 130.84238 | 5764 ft | 303 kts | 289° |
| 2026-04-30 22:02 | -12.48328 | 130.82195 | 5267 ft | 304 kts | 289° |
| 2026-04-30 22:03 | -12.47646 | 130.80172 | 5057 ft | 296 kts | 289° |
| 2026-04-30 22:03 | -12.46990 | 130.78227 | 4999 ft | 283 kts | 289° |
| 2026-04-30 22:03 | -12.46356 | 130.76346 | 4988 ft | 275 kts | 289° |
| 2026-04-30 22:03 | -12.45751 | 130.74548 | 4972 ft | 259 kts | 289° |
| 2026-04-30 22:04 | -12.45172 | 130.72831 | 4854 ft | 252 kts | 289° |
| 2026-04-30 22:04 | -12.44608 | 130.71158 | 4719 ft | 247 kts | 289° |
| 2026-04-30 22:04 | -12.43498 | 130.67866 | 4292 ft | 243 kts | 289° |
| 2026-04-30 22:05 | -12.42738 | 130.66355 | 3965 ft | 240 kts | 317° |
| 2026-04-30 22:05 | -12.41342 | 130.65490 | 3645 ft | 233 kts | 352° |
| 2026-04-30 22:05 | -12.39760 | 130.65444 | 3423 ft | 225 kts | 15° |
| 2026-04-30 22:05 | -12.38272 | 130.65865 | 3192 ft | 222 kts | 22° |
| 2026-04-30 22:06 | -12.36823 | 130.66379 | 3062 ft | 215 kts | 28° |
| 2026-04-30 22:06 | -12.35206 | 130.68670 | 2965 ft | 206 kts | 85° |
| 2026-04-30 22:06 | -12.35342 | 130.70113 | 2773 ft | 206 kts | 105° |
| 2026-04-30 22:07 | -12.35800 | 130.71513 | 2621 ft | 209 kts | 109° |
| 2026-04-30 22:07 | -12.36307 | 130.72902 | 2517 ft | 208 kts | 109° |
| 2026-04-30 22:07 | -12.36798 | 130.74269 | 2523 ft | 201 kts | 109° |
| 2026-04-30 22:07 | -12.37267 | 130.75594 | 2504 ft | 196 kts | 109° |
| 2026-04-30 22:08 | -12.37729 | 130.76905 | 2356 ft | 198 kts | 109° |
| 2026-04-30 22:08 | -12.38170 | 130.78258 | 2161 ft | 201 kts | 107° |
| 2026-04-30 22:08 | -12.38562 | 130.79610 | 1891 ft | 196 kts | 107° |
| 2026-04-30 22:08 | -12.38996 | 130.80923 | 1495 ft | 194 kts | 109° |
| 2026-04-30 22:09 | -12.39446 | 130.82195 | 1042 ft | 188 kts | 110° |
| 2026-04-30 22:09 | -12.39876 | 130.83402 | 747 ft | 176 kts | 109° |
| 2026-04-30 22:09 | -12.40244 | 130.84530 | 489 ft | 162 kts | 109° |
| 2026-04-30 22:09 | -12.40609 | 130.85594 | 367 ft | 168 kts | 111° |
| 2026-04-30 22:10 | -12.41017 | 130.86763 | 214 ft | 179 kts | 110° |
| 2026-04-30 22:10 | -12.41454 | 130.88026 | 758 ft | 182 kts | 111° |
| 2026-04-30 22:10 | -12.41862 | 130.89165 | 1412 ft | 169 kts | 109° |
| 2026-04-30 22:10 | -12.42304 | 130.90378 | 1349 ft | 198 kts | 109° |
| 2026-04-30 22:11 | -12.43861 | 130.93124 | 1063 ft | 245 kts | 144° |
| 2026-04-30 22:11 | -12.45395 | 130.93701 | 1334 ft | 236 kts | 175° |
| 2026-04-30 22:11 | -12.46963 | 130.93471 | 1760 ft | 221 kts | 191° |
| 2026-04-30 22:12 | -12.48383 | 130.92986 | 2165 ft | 212 kts | 208° |
| 2026-04-30 22:12 | -12.49368 | 130.91894 | 2581 ft | 214 kts | 246° |
| 2026-04-30 22:12 | -12.49577 | 130.90398 | 3012 ft | 218 kts | 278° |
| 2026-04-30 22:12 | -12.49248 | 130.88851 | 2976 ft | 224 kts | 286° |
| 2026-04-30 22:13 | -12.48826 | 130.87327 | 2992 ft | 221 kts | 287° |
| 2026-04-30 22:13 | -12.48403 | 130.85831 | 3052 ft | 218 kts | 287° |
| 2026-04-30 22:13 | -12.47977 | 130.84335 | 3017 ft | 220 kts | 287° |
| 2026-04-30 22:13 | -12.47547 | 130.82837 | 2992 ft | 219 kts | 287° |
| 2026-04-30 22:14 | -12.47090 | 130.81342 | 2851 ft | 221 kts | 291° |
| 2026-04-30 22:14 | -12.46551 | 130.79860 | 2622 ft | 221 kts | 292° |
| 2026-04-30 22:14 | -12.46012 | 130.78407 | 2356 ft | 216 kts | 292° |
| 2026-04-30 22:14 | -12.45485 | 130.76990 | 2105 ft | 210 kts | 292° |
| 2026-04-30 22:15 | -12.44972 | 130.75614 | 2061 ft | 209 kts | 292° |
| 2026-04-30 22:15 | -12.44447 | 130.74211 | 2033 ft | 214 kts | 292° |
| 2026-04-30 22:15 | -12.43835 | 130.72829 | 1998 ft | 212 kts | 309° |
| 2026-04-30 22:15 | -12.42683 | 130.71960 | 1997 ft | 206 kts | 347° |
| 2026-04-30 22:16 | -12.41305 | 130.71962 | 2000 ft | 196 kts | 22° |
| 2026-04-30 22:16 | -12.40096 | 130.72567 | 2003 ft | 193 kts | 39° |
| 2026-04-30 22:17 | -12.37986 | 130.75915 | 2007 ft | 188 kts | 81° |
| 2026-04-30 22:17 | -12.37845 | 130.77226 | 2037 ft | 182 kts | 92° |
| 2026-04-30 22:17 | -12.38598 | 130.79654 | 1398 ft | 169 kts | 108° |
| 2026-04-30 22:18 | -12.38987 | 130.80734 | 1144 ft | 157 kts | 108° |
| 2026-04-30 22:18 | -12.39672 | 130.82832 | 840 ft | 151 kts | 110° |
| 2026-04-30 22:19 | -12.40354 | 130.84867 | 532 ft | 155 kts | 111° |
| 2026-04-30 22:19 | -12.40702 | 130.85862 | 265 ft | 142 kts | 111° |
| 2026-04-30 22:19 | -12.41315 | 130.87641 | 107 ft | 106 kts | 109° |
| 2026-04-30 22:20 | -12.41476 | 130.88123 | 100 ft | 38 kts | 109° |
| 2026-04-30 22:20 | -12.41606 | 130.88433 | 100 ft | 20 kts | 148° |
| 2026-04-30 22:20 | -12.41708 | 130.88423 | 98 ft | 13 kts | 201° |
| 2026-04-30 22:21 | -12.41722 | 130.88417 | 98 ft | 0 kts | 201° |
| 2026-04-30 22:22 | -12.41730 | 130.88414 | 98 ft | 6 kts | 201° |
| 2026-04-30 22:22 | -12.41797 | 130.88384 | 100 ft | 11 kts | 225° |
| 2026-04-30 22:23 | -12.41816 | 130.88306 | 100 ft | 12 kts | 271° |
| 2026-04-30 22:23 | -12.41798 | 130.88226 | 100 ft | 12 kts | 288° |
| 2026-04-30 22:23 | -12.41772 | 130.88147 | 102 ft | 12 kts | 292° |
| 2026-04-30 22:23 | -12.41743 | 130.88069 | 103 ft | 12 kts | 289° |
| 2026-04-30 22:24 | -12.41713 | 130.87991 | 104 ft | 12 kts | 299° |
| 2026-04-30 22:24 | -12.41653 | 130.87937 | 103 ft | 12 kts | 337° |
| 2026-04-30 22:24 | -12.41573 | 130.87939 | 104 ft | 12 kts | 16° |
| 2026-04-30 22:24 | -12.41493 | 130.87964 | 105 ft | 12 kts | 17° |
| 2026-04-30 22:25 | -12.41414 | 130.87989 | 105 ft | 12 kts | 17° |
| 2026-04-30 22:25 | -12.41322 | 130.88021 | 102 ft | 17 kts | 19° |
| 2026-04-30 22:25 | -12.41212 | 130.88061 | 105 ft | 17 kts | 21° |
| 2026-04-30 22:25 | -12.41102 | 130.88096 | 103 ft | 16 kts | 354° |
| 2026-04-30 22:26 | -12.40981 | 130.88061 | 100 ft | 0 kts | 326° |